createdAt,value
2023-05-05T00:00:57.383Z,94714.44
2023-05-05T00:03:24.895Z,94729.59
2023-05-05T00:05:52.097Z,94738.81
2023-05-05T00:08:18.561Z,94725.25
2023-05-05T00:10:45.412Z,94712.81
2023-05-05T00:13:11.929Z,94705.47
2023-05-05T00:15:38.375Z,94721.19
2023-05-05T00:18:05.043Z,94724.94
2023-05-05T00:20:31.568Z,94731.75
2023-05-05T00:22:58.159Z,94721.97
2023-05-05T00:25:24.615Z,94721.41
2023-05-05T00:27:51.016Z,94697.88
2023-05-05T00:30:18.206Z,94703.56
2023-05-05T00:32:44.700Z,94709.50
2023-05-05T00:35:11.148Z,94709.25
2023-05-05T00:37:37.592Z,94711.41
2023-05-05T00:40:04.215Z,94704.34
2023-05-05T00:42:41.172Z,94693.47
2023-05-05T00:45:08.675Z,94705.16
2023-05-05T00:47:35.261Z,94714.63
2023-05-05T00:50:03.613Z,94697.28
2023-05-05T00:52:30.023Z,94718.41
2023-05-05T00:54:57.460Z,94696.72
2023-05-05T00:57:24.731Z,94678.56
2023-05-05T00:59:51.269Z,94711.06
2023-05-05T01:02:18.868Z,94682.91
2023-05-05T01:04:45.286Z,94666.63
2023-05-05T01:07:27.782Z,94687.50
2023-05-05T01:10:14.992Z,94709.44
2023-05-05T01:12:58.636Z,94692.09
2023-05-05T01:15:34.766Z,94703.72
2023-05-05T01:18:35.683Z,94679.03
2023-05-05T01:21:14.278Z,94695.28
2023-05-05T01:24:05.482Z,94701.50
2023-05-05T01:26:52.461Z,94710.44
2023-05-05T01:29:46.387Z,94699.34
2023-05-05T01:32:14.169Z,94700.38
2023-05-05T01:34:44.142Z,94696.59
2023-05-05T01:37:13.525Z,94671.91
2023-05-05T01:39:40.708Z,94703.94
2023-05-05T01:42:09.908Z,94694.47
2023-05-05T01:44:36.657Z,94704.19
2023-05-05T01:47:03.321Z,94699.88
2023-05-05T01:49:29.761Z,94698.50
2023-05-05T01:51:56.488Z,94683.59
2023-05-05T01:54:24.122Z,94687.13
2023-05-05T01:56:50.553Z,94661.88
2023-05-05T01:59:17.218Z,94668.94
2023-05-05T02:01:45.898Z,94684.38
2023-05-05T02:04:12.830Z,94693.88
2023-05-05T02:06:39.250Z,94700.09
2023-05-05T02:09:05.697Z,94682.50
2023-05-05T02:11:32.113Z,94687.66
2023-05-05T02:13:58.832Z,94680.88
2023-05-05T02:16:25.356Z,94702.25
2023-05-05T02:18:51.875Z,94700.28
2023-05-05T02:21:18.317Z,94714.59
2023-05-05T02:23:46.990Z,94701.63
2023-05-05T02:26:13.972Z,94702.69
2023-05-05T02:28:42.726Z,94695.63
2023-05-05T02:31:10.468Z,94716.22
2023-05-05T02:33:36.951Z,94705.91
2023-05-05T02:36:08.482Z,94684.50
2023-05-05T02:38:34.926Z,94679.13
2023-05-05T02:41:01.376Z,94698.91
2023-05-05T02:43:27.870Z,94687.03
2023-05-05T02:45:54.297Z,94686.16
2023-05-05T02:48:21.009Z,94700.53
2023-05-05T02:50:47.417Z,94701.91
2023-05-05T02:53:13.874Z,94686.97
2023-05-05T02:55:54.446Z,94697.56
2023-05-05T02:58:27.780Z,94676.41
2023-05-05T03:01:15.989Z,94699.47
2023-05-05T03:03:50.293Z,94688.84
2023-05-05T03:06:18.057Z,94672.31
2023-05-05T03:08:49.973Z,94685.63
2023-05-05T03:11:22.873Z,94686.16
2023-05-05T03:13:51.675Z,94671.50
2023-05-05T03:16:18.105Z,94688.06
2023-05-05T03:18:45.060Z,94665.81
2023-05-05T03:21:11.466Z,94680.47
2023-05-05T03:23:37.952Z,94674.53
2023-05-05T03:26:04.712Z,94661.75
2023-05-05T03:28:31.135Z,94675.63
2023-05-05T03:30:57.561Z,94679.13
2023-05-05T03:33:24.010Z,94669.88
2023-05-05T03:35:50.542Z,94649.81
2023-05-05T03:38:17.719Z,94680.66
2023-05-05T03:40:44.953Z,94675.28
2023-05-05T03:43:11.761Z,94670.41
2023-05-05T03:45:38.401Z,94648.13
2023-05-05T03:48:05.255Z,94674.66
2023-05-05T03:50:31.773Z,94659.19
2023-05-05T03:52:58.227Z,94650.81
2023-05-05T03:55:24.646Z,94645.41
2023-05-05T03:57:51.180Z,94668.41
2023-05-05T04:00:17.979Z,94657.00
2023-05-05T04:02:44.553Z,94657.53
2023-05-05T04:05:11.067Z,94668.91
2023-05-05T04:07:37.500Z,94661.06
2023-05-05T04:10:04.139Z,94655.59
2023-05-05T04:12:30.636Z,94676.44
2023-05-05T04:14:57.100Z,94671.13
2023-05-05T04:17:23.704Z,94676.91
2023-05-05T04:19:50.192Z,94673.41
2023-05-05T04:22:16.607Z,94672.84
2023-05-05T04:24:43.071Z,94673.41
2023-05-05T04:27:09.496Z,94663.69
2023-05-05T04:29:36.041Z,94649.28
2023-05-05T04:32:02.521Z,94663.94
2023-05-05T04:34:28.986Z,94644.75
2023-05-05T04:36:55.478Z,94663.75
2023-05-05T04:39:21.918Z,94662.34
2023-05-05T04:41:48.371Z,94666.66
2023-05-05T04:44:14.788Z,94668.06
2023-05-05T04:46:41.436Z,94676.19
2023-05-05T04:49:09.094Z,94684.81
2023-05-05T04:51:35.569Z,94685.34
2023-05-05T04:54:02.075Z,94676.66
2023-05-05T04:56:31.081Z,94681.56
2023-05-05T04:58:57.485Z,94693.53
2023-05-05T05:01:23.949Z,94673.50
2023-05-05T05:03:51.035Z,94695.25
2023-05-05T05:06:17.497Z,94674.09
2023-05-05T05:08:43.937Z,94699.88
2023-05-05T05:11:10.477Z,94695.06
2023-05-05T05:13:36.885Z,94701.63
2023-05-05T05:16:03.364Z,94696.16
2023-05-05T05:18:29.800Z,94690.28
2023-05-05T05:20:56.290Z,94703.34
2023-05-05T05:23:22.714Z,94709.31
2023-05-05T05:25:49.121Z,94687.94
2023-05-05T05:28:15.654Z,94695.59
2023-05-05T05:30:42.079Z,94705.06
2023-05-05T05:33:08.631Z,94685.59
2023-05-05T05:35:35.092Z,94652.25
2023-05-05T05:38:01.549Z,94708.09
2023-05-05T05:40:28.592Z,94688.34
2023-05-05T05:42:55.043Z,94688.34
2023-05-05T05:45:21.856Z,94650.44
2023-05-05T05:47:48.310Z,94707.31
2023-05-05T05:50:14.949Z,94696.50
2023-05-05T05:52:41.346Z,94679.97
2023-05-05T05:55:08.220Z,94680.56
2023-05-05T05:57:34.635Z,94703.84
2023-05-05T06:00:02.121Z,94710.34
2023-05-05T06:02:28.943Z,94710.41
2023-05-05T06:04:55.542Z,94708.75
2023-05-05T06:07:22.013Z,94713.63
2023-05-05T06:09:48.413Z,94721.72
2023-05-05T06:12:14.861Z,94717.91
2023-05-05T06:14:41.267Z,94719.50
2023-05-05T06:17:07.668Z,94714.06
2023-05-05T06:19:35.047Z,94708.59
2023-05-05T06:22:01.473Z,94706.09
2023-05-05T06:24:27.895Z,94720.13
2023-05-05T06:26:54.305Z,94725.22
2023-05-05T06:29:20.948Z,94722.94
2023-05-05T06:31:47.464Z,94717.16
2023-05-05T06:34:13.921Z,94713.63
2023-05-05T06:36:40.421Z,94710.53
2023-05-05T06:39:07.098Z,94712.06
2023-05-05T06:41:33.564Z,94703.75
2023-05-05T06:44:01.477Z,94693.22
2023-05-05T06:46:27.943Z,94703.56
2023-05-05T06:48:54.442Z,94692.81
2023-05-05T06:51:21.028Z,94690.56
2023-05-05T06:53:47.525Z,94690.28
2023-05-05T06:56:13.947Z,94696.22
2023-05-05T06:58:41.104Z,94689.03
2023-05-05T07:01:07.678Z,94688.91
2023-05-05T07:03:34.212Z,94692.94
2023-05-05T07:06:00.668Z,94685.31
2023-05-05T07:08:27.073Z,94682.34
2023-05-05T07:10:53.508Z,94686.34
2023-05-05T07:13:19.986Z,94690.28
2023-05-05T07:15:46.693Z,94690.34
2023-05-05T07:18:16.369Z,94683.75
2023-05-05T07:20:43.960Z,94682.72
2023-05-05T07:23:11.187Z,94681.91
2023-05-05T07:25:37.729Z,94675.94
2023-05-05T07:28:04.403Z,94678.00
2023-05-05T07:30:30.911Z,94667.47
2023-05-05T07:32:57.386Z,94677.81
2023-05-05T07:35:23.819Z,94665.91
2023-05-05T07:37:50.844Z,94662.31
2023-05-05T07:40:17.600Z,94667.19
2023-05-05T07:42:44.013Z,94663.72
2023-05-05T07:45:10.993Z,94660.06
2023-05-05T07:47:37.448Z,94663.22
2023-05-05T07:50:04.123Z,94657.53
2023-05-05T07:52:45.366Z,94664.25
2023-05-05T07:55:14.582Z,94662.09
2023-05-05T07:57:41.121Z,94661.34
2023-05-05T08:00:08.153Z,94666.72
2023-05-05T08:02:34.893Z,94663.00
2023-05-05T08:05:01.442Z,94664.25
2023-05-05T08:07:27.874Z,94661.47
2023-05-05T08:09:54.262Z,94656.00
2023-05-05T08:12:20.915Z,94652.94
2023-05-05T08:14:47.371Z,94653.84
2023-05-05T08:17:13.983Z,94653.88
2023-05-05T08:24:36.193Z,94633.06
2023-05-05T08:54:16.006Z,94625.06
2023-05-05T09:09:13.316Z,94604.16
2023-05-05T09:27:20.393Z,94588.53
2023-05-05T09:30:05.267Z,94591.13
2023-05-05T09:32:47.411Z,94594.63
2023-05-05T09:35:35.698Z,94590.19
2023-05-05T09:38:11.366Z,94562.97
2023-05-05T09:40:53.446Z,94555.69
2023-05-05T09:43:23.359Z,94575.88
2023-05-05T09:45:50.252Z,94551.81
2023-05-05T09:48:24.708Z,94553.78
2023-05-05T09:50:51.222Z,94527.03
2023-05-05T09:53:18.288Z,94532.13
2023-05-05T09:56:00.573Z,94557.91
2023-05-05T09:58:28.185Z,94556.28
2023-05-05T10:00:55.368Z,94522.25
2023-05-05T10:03:21.861Z,94549.31
2023-05-05T10:05:55.674Z,94552.84
2023-05-05T10:08:29.320Z,94548.31
2023-05-05T10:11:00.763Z,94532.72
2023-05-05T10:13:27.659Z,94549.94
2023-05-05T10:15:55.929Z,94533.81
2023-05-05T10:18:23.229Z,94535.19
2023-05-05T10:20:57.189Z,94531.53
2023-05-05T10:23:24.758Z,94528.16
2023-05-05T10:25:55.086Z,94528.91
2023-05-05T10:28:56.683Z,94523.03
2023-05-05T10:31:30.142Z,94524.72
2023-05-05T10:34:03.756Z,94523.34
2023-05-05T10:36:31.668Z,94518.00
2023-05-05T10:38:58.209Z,94515.53
2023-05-05T10:41:25.037Z,94512.75
2023-05-05T10:43:51.756Z,94513.44
2023-05-05T10:46:18.219Z,94511.34
2023-05-05T10:48:51.194Z,94512.19
2023-05-05T10:51:53.412Z,94502.56
2023-05-05T10:54:24.964Z,94502.31
2023-05-05T10:56:51.595Z,94493.34
2023-05-05T10:59:39.525Z,94491.88
2023-05-05T11:02:30.341Z,94492.69
2023-05-05T11:05:15.190Z,94485.38
2023-05-05T11:07:42.266Z,94486.00
2023-05-05T11:10:09.900Z,94483.38
2023-05-05T11:13:00.021Z,94483.91
2023-05-05T11:15:26.497Z,94481.88
2023-05-05T11:17:53.688Z,94473.84
2023-05-05T11:20:35.836Z,94479.38
2023-05-05T11:23:02.126Z,94473.72
2023-05-05T11:25:34.493Z,94472.63
2023-05-05T11:28:07.007Z,94466.97
2023-05-05T11:30:33.467Z,94469.81
2023-05-05T11:33:28.864Z,94469.91
2023-05-05T11:35:55.919Z,94462.25
2023-05-05T11:38:56.876Z,94453.47
2023-05-05T11:41:32.365Z,94448.56
2023-05-05T11:44:20.987Z,94449.09
2023-05-05T11:46:53.456Z,94445.34
2023-05-05T11:49:39.180Z,94443.50
2023-05-05T11:52:07.706Z,94436.31
2023-05-05T11:54:38.561Z,94434.28
2023-05-05T11:57:07.148Z,94432.84
2023-05-05T11:59:34.133Z,94442.84
2023-05-05T12:02:00.582Z,94434.25
2023-05-05T12:04:27.197Z,94431.84
2023-05-05T12:06:53.653Z,94435.03
2023-05-05T12:09:21.676Z,94433.50
2023-05-05T12:11:57.978Z,94436.19
2023-05-05T12:14:24.938Z,94430.22
2023-05-05T12:16:58.279Z,94432.50
2023-05-05T12:19:29.647Z,94422.84
2023-05-05T12:21:56.589Z,94417.84
2023-05-05T12:24:23.027Z,94415.53
2023-05-05T12:26:49.445Z,94414.66
2023-05-05T12:29:25.966Z,94414.13
2023-05-05T12:31:52.470Z,94409.16
2023-05-05T12:34:18.900Z,94421.34
2023-05-05T12:36:45.353Z,94423.88
2023-05-05T12:39:12.015Z,94423.59
2023-05-05T12:41:38.421Z,94426.97
2023-05-05T12:44:05.113Z,94430.25
2023-05-05T12:46:31.899Z,94422.13
2023-05-05T12:49:05.515Z,94423.41
2023-05-05T12:51:35.889Z,94416.34
2023-05-05T12:54:03.316Z,94420.25
2023-05-05T12:56:39.647Z,94416.00
2023-05-05T12:59:29.190Z,94419.41
2023-05-05T13:01:56.591Z,94409.81
2023-05-05T13:04:24.203Z,94402.94
2023-05-05T13:07:07.435Z,94395.94
2023-05-05T13:09:34.594Z,94396.53
2023-05-05T13:12:03.107Z,94388.13
2023-05-05T13:14:30.742Z,94372.19
2023-05-05T13:16:57.355Z,94374.25
2023-05-05T13:19:27.577Z,94362.81
2023-05-05T13:21:57.401Z,94366.84
2023-05-05T13:24:31.643Z,94373.94
2023-05-05T13:27:04.963Z,94368.88
2023-05-05T13:29:31.867Z,94363.81
2023-05-05T13:31:58.362Z,94364.75
2023-05-05T13:34:24.776Z,94363.25
2023-05-05T13:36:51.798Z,94366.81
2023-05-05T13:39:18.391Z,94360.41
2023-05-05T13:41:45.298Z,94359.25
2023-05-05T13:44:12.189Z,94352.75
2023-05-05T13:46:38.659Z,94351.81
2023-05-05T13:49:05.089Z,94350.22
2023-05-05T13:51:31.526Z,94343.03
2023-05-05T13:53:59.040Z,94343.25
2023-05-05T13:56:27.545Z,94348.44
2023-05-05T13:58:54.255Z,94347.78
2023-05-05T14:01:20.768Z,94348.34
2023-05-05T14:03:47.269Z,94347.91
2023-05-05T14:06:13.738Z,94353.94
2023-05-05T14:08:40.167Z,94342.78
2023-05-05T14:11:06.644Z,94354.66
2023-05-05T14:13:33.093Z,94343.13
2023-05-05T14:15:59.622Z,94355.47
2023-05-05T14:18:26.124Z,94361.69
2023-05-05T14:20:52.663Z,94355.38
2023-05-05T14:23:19.208Z,94319.50
2023-05-05T14:25:45.657Z,94341.75
2023-05-05T14:28:12.092Z,94346.00
2023-05-05T14:30:39.411Z,94346.91
2023-05-05T14:33:05.851Z,94342.66
2023-05-05T14:35:32.334Z,94360.78
2023-05-05T14:37:58.770Z,94323.84
2023-05-05T14:40:25.231Z,94342.16
2023-05-05T14:42:51.716Z,94351.63
2023-05-05T14:45:18.132Z,94369.09
2023-05-05T14:47:44.589Z,94348.91
2023-05-05T14:50:11.142Z,94338.78
2023-05-05T14:52:39.184Z,94347.94
2023-05-05T14:55:06.743Z,94359.47
2023-05-05T14:57:33.264Z,94381.72
2023-05-05T14:59:59.687Z,94381.66
2023-05-05T15:02:26.172Z,94349.69
2023-05-05T15:04:53.102Z,94405.78
2023-05-05T15:07:20.463Z,94407.59
2023-05-05T15:09:46.930Z,94410.53
2023-05-05T15:12:13.364Z,94410.44
2023-05-05T15:14:39.860Z,94374.81
2023-05-05T15:17:06.487Z,94379.50
2023-05-05T15:19:32.933Z,94394.78
2023-05-05T15:21:59.400Z,94395.78
2023-05-05T15:24:26.191Z,94393.84
2023-05-05T15:26:52.638Z,94403.81
2023-05-05T15:29:19.070Z,94398.34
2023-05-05T15:31:45.573Z,94396.59
2023-05-05T15:34:12.031Z,94389.97
2023-05-05T15:36:38.455Z,94426.53
2023-05-05T15:39:04.942Z,94409.13
2023-05-05T15:41:33.526Z,94374.03
2023-05-05T15:44:00.659Z,94422.13
2023-05-05T15:46:27.094Z,94428.56
2023-05-05T15:48:53.549Z,94436.56
2023-05-05T15:51:20.029Z,94414.03
2023-05-05T15:53:47.124Z,94432.69
2023-05-05T15:56:13.597Z,94445.75
2023-05-05T15:58:40.027Z,94447.19
2023-05-05T16:01:06.510Z,94433.69
2023-05-05T16:03:33.103Z,94443.53
2023-05-05T16:05:59.612Z,94451.00
2023-05-05T16:08:26.048Z,94441.34
2023-05-05T16:10:52.588Z,94441.22
2023-05-05T16:13:19.185Z,94448.00
2023-05-05T16:15:46.213Z,94451.72
2023-05-05T16:18:12.674Z,94448.19
2023-05-05T16:20:39.109Z,94457.22
2023-05-05T16:23:05.598Z,94448.53
2023-05-05T16:25:31.991Z,94427.53
2023-05-05T16:28:00.030Z,94447.34
2023-05-05T16:30:26.697Z,94444.94
2023-05-05T16:32:54.322Z,94431.41
2023-05-05T16:35:21.041Z,94457.69
2023-05-05T16:37:47.472Z,94422.06
2023-05-05T16:40:13.991Z,94457.41
2023-05-05T16:42:41.883Z,94462.69
2023-05-05T16:45:09.912Z,94465.28
2023-05-05T16:47:37.172Z,94464.31
2023-05-05T16:50:03.922Z,94454.00
2023-05-05T16:52:30.450Z,94445.94
2023-05-05T16:54:57.187Z,94478.47
2023-05-05T16:57:23.709Z,94439.47
2023-05-05T16:59:50.240Z,94480.28
2023-05-05T17:02:16.658Z,94503.78
2023-05-05T17:04:43.056Z,94486.22
2023-05-05T17:07:09.458Z,94475.88
2023-05-05T17:09:35.922Z,94495.72
2023-05-05T17:12:04.000Z,94479.44
2023-05-05T17:14:30.699Z,94486.38
2023-05-05T17:16:57.128Z,94454.53
2023-05-05T17:19:23.577Z,94516.22
2023-05-05T17:21:50.019Z,94510.00
2023-05-05T17:24:16.450Z,94490.00
2023-05-05T17:26:42.863Z,94499.84
2023-05-05T17:29:10.420Z,94458.56
2023-05-05T17:31:38.805Z,94507.38
2023-05-05T17:34:05.281Z,94510.59
2023-05-05T17:36:31.733Z,94504.28
2023-05-05T17:38:58.133Z,94488.97
2023-05-05T17:41:25.579Z,94516.03
2023-05-05T17:43:51.985Z,94515.75
2023-05-05T17:46:18.414Z,94510.31
2023-05-05T17:48:44.954Z,94532.19
2023-05-05T17:51:11.399Z,94509.72
2023-05-05T17:53:38.429Z,94521.28
2023-05-05T17:56:07.199Z,94517.75
2023-05-05T17:58:35.082Z,94522.09
2023-05-05T18:01:01.525Z,94523.34
2023-05-05T18:03:28.300Z,94512.59
2023-05-05T18:05:54.912Z,94497.19
2023-05-05T18:08:21.319Z,94530.50
2023-05-05T18:10:47.861Z,94529.00
2023-05-05T18:13:14.403Z,94524.91
2023-05-05T18:15:41.069Z,94491.81
2023-05-05T18:18:07.608Z,94506.94
2023-05-05T18:20:34.171Z,94522.25
2023-05-05T18:23:00.622Z,94516.59
2023-05-05T18:25:27.098Z,94516.31
2023-05-05T18:27:53.547Z,94513.94
2023-05-05T18:30:19.983Z,94536.69
2023-05-05T18:32:46.470Z,94536.88
2023-05-05T18:35:13.017Z,94519.13
2023-05-05T18:37:39.453Z,94523.81
2023-05-05T18:40:06.964Z,94531.50
2023-05-05T18:42:33.406Z,94527.16
2023-05-05T18:44:59.804Z,94532.91
2023-05-05T18:47:26.337Z,94512.28
2023-05-05T18:49:52.831Z,94535.13
2023-05-05T18:52:19.232Z,94548.66
2023-05-05T18:54:46.027Z,94498.84
2023-05-05T18:57:12.430Z,94527.59
2023-05-05T18:59:38.878Z,94530.44
2023-05-05T19:02:06.362Z,94530.41
2023-05-05T19:04:36.429Z,94558.94
2023-05-05T19:07:02.908Z,94552.69
2023-05-05T19:09:32.290Z,94567.72
2023-05-05T19:11:58.897Z,94554.63
2023-05-05T19:14:25.490Z,94569.41
2023-05-05T19:16:52.216Z,94578.47
2023-05-05T19:19:18.672Z,94580.38
2023-05-05T19:21:45.327Z,94573.00
2023-05-05T19:24:11.768Z,94573.06
2023-05-05T19:26:38.230Z,94578.16
2023-05-05T19:29:04.923Z,94560.94
2023-05-05T19:31:31.905Z,94573.06
2023-05-05T19:34:00.196Z,94585.59
2023-05-05T19:36:27.608Z,94572.50
2023-05-05T19:38:54.907Z,94576.09
2023-05-05T19:41:21.362Z,94575.44
2023-05-05T19:43:47.825Z,94583.59
2023-05-05T19:46:14.461Z,94579.84
2023-05-05T19:48:41.261Z,94574.41
2023-05-05T19:51:07.744Z,94589.03
2023-05-05T19:53:34.167Z,94579.38
2023-05-05T19:56:00.975Z,94563.53
2023-05-05T19:58:27.413Z,94581.16
2023-05-05T20:00:53.816Z,94575.75
2023-05-05T20:03:21.077Z,94555.22
2023-05-05T20:05:47.621Z,94540.25
2023-05-05T20:08:14.213Z,94592.03
2023-05-05T20:10:40.683Z,94577.94
2023-05-05T20:13:07.242Z,94596.97
2023-05-05T20:15:33.723Z,94599.97
2023-05-05T20:18:00.259Z,94580.00
2023-05-05T20:20:26.727Z,94576.78
2023-05-05T20:22:53.223Z,94592.13
2023-05-05T20:25:19.679Z,94561.06
2023-05-05T20:27:46.219Z,94589.19
2023-05-05T20:30:12.917Z,94587.09
2023-05-05T20:32:39.438Z,94570.63
2023-05-05T20:35:06.462Z,94584.88
2023-05-05T20:37:33.075Z,94588.97
2023-05-05T20:39:59.506Z,94581.13
2023-05-05T20:42:27.503Z,94582.00
2023-05-05T20:44:53.938Z,94595.38
2023-05-05T20:47:20.577Z,94585.41
2023-05-05T20:49:46.998Z,94571.19
2023-05-05T20:52:13.439Z,94548.44
2023-05-05T20:54:39.867Z,94574.19
2023-05-05T20:57:07.021Z,94539.22
2023-05-05T20:59:33.466Z,94564.09
2023-05-05T21:02:00.573Z,94557.63
2023-05-05T21:04:27.090Z,94568.94
2023-05-05T21:06:53.496Z,94592.66
2023-05-05T21:09:21.432Z,94583.72
2023-05-05T21:11:48.745Z,94582.59
2023-05-05T21:14:15.418Z,94570.94
2023-05-05T21:16:42.513Z,94548.31
2023-05-05T21:19:09.115Z,94601.25
2023-05-05T21:21:35.526Z,94582.84
2023-05-05T21:24:02.053Z,94550.25
2023-05-05T21:26:28.510Z,94585.41
2023-05-05T21:28:54.990Z,94571.56
2023-05-05T21:31:22.656Z,94579.44
2023-05-05T21:33:49.425Z,94569.72
2023-05-05T21:36:17.494Z,94579.28
2023-05-05T21:38:43.937Z,94554.03
2023-05-05T21:41:10.378Z,94518.44
2023-05-05T21:43:36.855Z,94562.78
2023-05-05T21:46:04.413Z,94565.97
2023-05-05T21:48:33.721Z,94527.66
2023-05-05T21:51:00.841Z,94563.91
2023-05-05T21:53:27.270Z,94541.31
2023-05-05T21:55:53.697Z,94560.84
2023-05-05T21:58:20.328Z,94553.56
2023-05-05T22:00:49.348Z,94560.03
2023-05-05T22:03:15.862Z,94556.53
2023-05-05T22:05:42.354Z,94548.97
2023-05-05T22:08:08.763Z,94551.16
2023-05-05T22:10:35.147Z,94544.38
2023-05-05T22:13:01.701Z,94548.16
2023-05-05T22:15:32.796Z,94557.34
2023-05-05T22:18:06.425Z,94540.09
2023-05-05T22:20:32.898Z,94534.72
2023-05-05T22:22:59.342Z,94533.91
2023-05-05T22:25:26.308Z,94556.09
2023-05-05T22:27:52.775Z,94561.28
2023-05-05T22:30:19.289Z,94556.22
2023-05-05T22:32:46.295Z,94549.47
2023-05-05T22:35:13.077Z,94541.69
2023-05-05T22:37:39.572Z,94566.31
2023-05-05T22:40:09.449Z,94567.38
2023-05-05T22:42:36.057Z,94574.66
2023-05-05T22:45:02.499Z,94584.09
2023-05-05T22:47:28.924Z,94563.53
2023-05-05T22:49:55.416Z,94565.44
2023-05-05T22:52:21.838Z,94576.81
2023-05-05T22:54:48.243Z,94585.72
2023-05-05T22:57:14.642Z,94591.13
2023-05-05T22:59:41.071Z,94550.06
2023-05-05T23:02:07.571Z,94592.22
2023-05-05T23:04:34.095Z,94567.03
2023-05-05T23:07:00.658Z,94569.72
2023-05-05T23:09:27.108Z,94533.50
2023-05-05T23:11:53.550Z,94586.28
2023-05-05T23:14:20.128Z,94583.00
2023-05-05T23:16:46.617Z,94579.75
2023-05-05T23:19:13.480Z,94555.47
2023-05-05T23:21:52.115Z,94585.75
2023-05-05T23:24:19.924Z,94574.97
2023-05-05T23:26:46.351Z,94596.38
2023-05-05T23:29:12.772Z,94576.88
2023-05-05T23:31:39.204Z,94603.44
2023-05-05T23:34:05.693Z,94605.56
2023-05-05T23:36:32.118Z,94584.19
2023-05-05T23:38:58.522Z,94589.84
2023-05-05T23:41:24.960Z,94588.75
2023-05-05T23:43:51.347Z,94591.19
2023-05-05T23:46:17.894Z,94579.56
2023-05-05T23:48:44.333Z,94553.81
2023-05-05T23:51:10.751Z,94570.06
2023-05-05T23:53:37.171Z,94563.28
2023-05-05T23:56:03.608Z,94549.75
2023-05-05T23:58:30.116Z,94557.31
